sensor_id;sensor_type;location;lat;lon;timestamp;pressure;altitude;pressure_sealevel;temperature;humidity
9905;BME280;4991;43.566;27.820;2022-10-18T00:00:52;100546.91;;;6.65;100.00
9905;BME280;4991;43.566;27.820;2022-10-18T00:03:18;100542.09;;;6.67;100.00
9905;BME280;4991;43.566;27.820;2022-10-18T00:05:45;100535.41;;;6.70;100.00
9905;BME280;4991;43.566;27.820;2022-10-18T00:08:10;100539.03;;;6.75;100.00
9905;BME280;4991;43.566;27.820;2022-10-18T00:10:36;100531.72;;;6.76;100.00
9905;BME280;4991;43.566;27.820;2022-10-18T00:13:02;100532.69;;;6.70;100.00
9905;BME280;4991;43.566;27.820;2022-10-18T00:15:28;100526.19;;;6.59;100.00
9905;BME280;4991;43.566;27.820;2022-10-18T00:17:53;100521.38;;;6.49;100.00
9905;BME280;4991;43.566;27.820;2022-10-18T00:20:19;100523.72;;;6.46;100.00
9905;BME280;4991;43.566;27.820;2022-10-18T00:22:44;100531.97;;;6.39;100.00
9905;BME280;4991;43.566;27.820;2022-10-18T00:25:10;100522.44;;;6.37;100.00
9905;BME280;4991;43.566;27.820;2022-10-18T00:27:36;100526.09;;;6.42;100.00
9905;BME280;4991;43.566;27.820;2022-10-18T00:30:02;100512.44;;;6.49;100.00
9905;BME280;4991;43.566;27.820;2022-10-18T00:32:28;100522.06;;;6.33;100.00
9905;BME280;4991;43.566;27.820;2022-10-18T00:34:53;100526.66;;;6.21;100.00
9905;BME280;4991;43.566;27.820;2022-10-18T00:37:19;100520.06;;;6.17;100.00
9905;BME280;4991;43.566;27.820;2022-10-18T00:39:45;100521.25;;;6.21;100.00
9905;BME280;4991;43.566;27.820;2022-10-18T00:42:15;100514.31;;;6.37;100.00
9905;BME280;4991;43.566;27.820;2022-10-18T00:47:09;100514.06;;;6.15;100.00
9905;BME280;4991;43.566;27.820;2022-10-18T00:49:40;100513.34;;;6.08;100.00
9905;BME280;4991;43.566;27.820;2022-10-18T00:52:18;100524.06;;;6.03;100.00
9905;BME280;4991;43.566;27.820;2022-10-18T00:54:46;100515.94;;;6.03;100.00
9905;BME280;4991;43.566;27.820;2022-10-18T00:57:12;100516.50;;;6.05;100.00
9905;BME280;4991;43.566;27.820;2022-10-18T00:59:39;100517.81;;;6.03;100.00
9905;BME280;4991;43.566;27.820;2022-10-18T01:02:06;100512.28;;;5.98;100.00
9905;BME280;4991;43.566;27.820;2022-10-18T01:04:32;100511.78;;;5.89;100.00
9905;BME280;4991;43.566;27.820;2022-10-18T01:10:51;100501.91;;;5.95;100.00
9905;BME280;4991;43.566;27.820;2022-10-18T01:18:43;100493.44;;;5.91;100.00
9905;BME280;4991;43.566;27.820;2022-10-18T01:21:34;100492.50;;;5.97;100.00
9905;BME280;4991;43.566;27.820;2022-10-18T01:32:37;100479.09;;;5.91;100.00
9905;BME280;4991;43.566;27.820;2022-10-18T01:35:10;100483.09;;;5.88;100.00
9905;BME280;4991;43.566;27.820;2022-10-18T01:37:40;100483.78;;;5.95;100.00
9905;BME280;4991;43.566;27.820;2022-10-18T01:40:08;100487.81;;;5.93;100.00
9905;BME280;4991;43.566;27.820;2022-10-18T01:42:36;100480.72;;;5.80;100.00
9905;BME280;4991;43.566;27.820;2022-10-18T01:45:03;100486.53;;;5.66;100.00
9905;BME280;4991;43.566;27.820;2022-10-18T01:47:29;100486.88;;;5.69;100.00
9905;BME280;4991;43.566;27.820;2022-10-18T01:49:59;100487.34;;;5.66;100.00
9905;BME280;4991;43.566;27.820;2022-10-18T01:52:25;100477.97;;;5.69;100.00
9905;BME280;4991;43.566;27.820;2022-10-18T01:54:52;100476.41;;;5.61;100.00
9905;BME280;4991;43.566;27.820;2022-10-18T02:00:33;100478.31;;;5.72;100.00
9905;BME280;4991;43.566;27.820;2022-10-18T02:03:06;100483.88;;;5.48;100.00
9905;BME280;4991;43.566;27.820;2022-10-18T02:05:47;100481.59;;;5.33;100.00
9905;BME280;4991;43.566;27.820;2022-10-18T02:08:43;100476.25;;;5.45;100.00
9905;BME280;4991;43.566;27.820;2022-10-18T02:11:13;100462.97;;;5.43;100.00
9905;BME280;4991;43.566;27.820;2022-10-18T02:13:47;100477.56;;;5.54;100.00
9905;BME280;4991;43.566;27.820;2022-10-18T02:19:10;100471.31;;;5.42;100.00
9905;BME280;4991;43.566;27.820;2022-10-18T02:21:39;100458.13;;;5.34;100.00
9905;BME280;4991;43.566;27.820;2022-10-18T02:24:06;100469.72;;;5.34;100.00
9905;BME280;4991;43.566;27.820;2022-10-18T02:26:33;100462.59;;;5.40;100.00
9905;BME280;4991;43.566;27.820;2022-10-18T02:28:58;100467.44;;;5.49;100.00
9905;BME280;4991;43.566;27.820;2022-10-18T02:31:29;100456.63;;;5.49;100.00
9905;BME280;4991;43.566;27.820;2022-10-18T02:33:59;100460.63;;;5.47;100.00
9905;BME280;4991;43.566;27.820;2022-10-18T02:36:33;100468.22;;;5.38;100.00
9905;BME280;4991;43.566;27.820;2022-10-18T02:39:03;100459.75;;;5.35;100.00
9905;BME280;4991;43.566;27.820;2022-10-18T02:41:30;100459.28;;;5.38;100.00
9905;BME280;4991;43.566;27.820;2022-10-18T02:43:57;100464.84;;;5.43;100.00
9905;BME280;4991;43.566;27.820;2022-10-18T02:46:22;100458.63;;;5.42;100.00
9905;BME280;4991;43.566;27.820;2022-10-18T02:48:48;100459.19;;;5.44;100.00
9905;BME280;4991;43.566;27.820;2022-10-18T02:51:14;100463.38;;;5.58;100.00
9905;BME280;4991;43.566;27.820;2022-10-18T02:53:40;100457.69;;;5.48;100.00
9905;BME280;4991;43.566;27.820;2022-10-18T02:56:06;100457.19;;;5.40;100.00
9905;BME280;4991;43.566;27.820;2022-10-18T02:58:32;100460.22;;;5.32;100.00
9905;BME280;4991;43.566;27.820;2022-10-18T03:00:57;100462.56;;;5.28;100.00
9905;BME280;4991;43.566;27.820;2022-10-18T03:03:23;100461.16;;;5.25;100.00
9905;BME280;4991;43.566;27.820;2022-10-18T03:05:49;100462.41;;;5.23;100.00
9905;BME280;4991;43.566;27.820;2022-10-18T03:08:15;100458.22;;;5.27;100.00
9905;BME280;4991;43.566;27.820;2022-10-18T03:10:45;100454.31;;;5.23;100.00
9905;BME280;4991;43.566;27.820;2022-10-18T03:13:10;100445.22;;;5.17;100.00
9905;BME280;4991;43.566;27.820;2022-10-18T03:15:36;100456.28;;;5.16;100.00
9905;BME280;4991;43.566;27.820;2022-10-18T03:18:02;100450.63;;;5.17;100.00
9905;BME280;4991;43.566;27.820;2022-10-18T03:20:28;100447.59;;;5.14;100.00
9905;BME280;4991;43.566;27.820;2022-10-18T03:22:54;100450.81;;;5.04;100.00
9905;BME280;4991;43.566;27.820;2022-10-18T03:25:20;100453.22;;;4.94;100.00
9905;BME280;4991;43.566;27.820;2022-10-18T03:27:45;100448.81;;;5.00;100.00
9905;BME280;4991;43.566;27.820;2022-10-18T03:30:11;100452.03;;;5.08;100.00
9905;BME280;4991;43.566;27.820;2022-10-18T03:32:38;100450.59;;;5.06;100.00
9905;BME280;4991;43.566;27.820;2022-10-18T03:35:05;100450.44;;;5.01;100.00
9905;BME280;4991;43.566;27.820;2022-10-18T03:37:31;100460.59;;;5.05;100.00
9905;BME280;4991;43.566;27.820;2022-10-18T03:39:56;100458.66;;;5.24;100.00
9905;BME280;4991;43.566;27.820;2022-10-18T03:42:22;100451.16;;;5.26;100.00
9905;BME280;4991;43.566;27.820;2022-10-18T03:44:47;100458.66;;;5.24;100.00
9905;BME280;4991;43.566;27.820;2022-10-18T03:47:13;100455.09;;;5.12;100.00
9905;BME280;4991;43.566;27.820;2022-10-18T03:49:39;100450.16;;;5.09;100.00
9905;BME280;4991;43.566;27.820;2022-10-18T03:52:04;100448.31;;;5.21;100.00
9905;BME280;4991;43.566;27.820;2022-10-18T03:54:30;100450.34;;;5.25;100.00
9905;BME280;4991;43.566;27.820;2022-10-18T03:56:56;100457.47;;;5.20;100.00
9905;BME280;4991;43.566;27.820;2022-10-18T03:59:22;100454.91;;;5.25;100.00
9905;BME280;4991;43.566;27.820;2022-10-18T04:01:48;100448.06;;;5.52;100.00
9905;BME280;4991;43.566;27.820;2022-10-18T04:04:14;100450.22;;;5.62;100.00
9905;BME280;4991;43.566;27.820;2022-10-18T04:06:40;100449.75;;;5.65;100.00
9905;BME280;4991;43.566;27.820;2022-10-18T04:09:06;100452.31;;;5.60;100.00
9905;BME280;4991;43.566;27.820;2022-10-18T04:11:32;100438.47;;;5.68;100.00
9905;BME280;4991;43.566;27.820;2022-10-18T04:13:57;100439.56;;;5.78;100.00
9905;BME280;4991;43.566;27.820;2022-10-18T04:16:23;100434.16;;;5.78;100.00
9905;BME280;4991;43.566;27.820;2022-10-18T04:18:49;100431.78;;;5.59;100.00
9905;BME280;4991;43.566;27.820;2022-10-18T04:21:15;100439.38;;;5.50;100.00
9905;BME280;4991;43.566;27.820;2022-10-18T04:23:41;100436.47;;;5.63;100.00
9905;BME280;4991;43.566;27.820;2022-10-18T04:26:07;100437.91;;;5.77;100.00
9905;BME280;4991;43.566;27.820;2022-10-18T04:28:33;100438.00;;;5.71;100.00
9905;BME280;4991;43.566;27.820;2022-10-18T04:30:59;100435.03;;;5.61;100.00
9905;BME280;4991;43.566;27.820;2022-10-18T04:33:25;100437.84;;;5.54;100.00
9905;BME280;4991;43.566;27.820;2022-10-18T04:35:52;100434.59;;;5.64;100.00
9905;BME280;4991;43.566;27.820;2022-10-18T04:38:18;100434.59;;;5.64;100.00
9905;BME280;4991;43.566;27.820;2022-10-18T04:40:44;100434.66;;;5.57;100.00
9905;BME280;4991;43.566;27.820;2022-10-18T04:43:09;100451.75;;;5.69;100.00
9905;BME280;4991;43.566;27.820;2022-10-18T04:45:35;100445.44;;;5.75;100.00
9905;BME280;4991;43.566;27.820;2022-10-18T04:48:01;100440.88;;;5.87;100.00
9905;BME280;4991;43.566;27.820;2022-10-18T04:50:26;100454.94;;;5.78;100.00
9905;BME280;4991;43.566;27.820;2022-10-18T04:52:52;100442.84;;;5.80;100.00
9905;BME280;4991;43.566;27.820;2022-10-18T04:55:18;100434.75;;;5.80;100.00
9905;BME280;4991;43.566;27.820;2022-10-18T04:57:44;100438.25;;;5.81;100.00
9905;BME280;4991;43.566;27.820;2022-10-18T05:00:10;100440.47;;;5.72;100.00
9905;BME280;4991;43.566;27.820;2022-10-18T05:02:36;100442.72;;;5.75;100.00
9905;BME280;4991;43.566;27.820;2022-10-18T05:05:03;100448.25;;;5.80;100.00
9905;BME280;4991;43.566;27.820;2022-10-18T05:07:29;100451.22;;;5.90;100.00
9905;BME280;4991;43.566;27.820;2022-10-18T05:09:55;100447.00;;;5.94;100.00
9905;BME280;4991;43.566;27.820;2022-10-18T05:12:21;100437.69;;;5.90;100.00
9905;BME280;4991;43.566;27.820;2022-10-18T05:14:47;100444.31;;;5.94;100.00
9905;BME280;4991;43.566;27.820;2022-10-18T05:17:12;100437.75;;;6.13;100.00
9905;BME280;4991;43.566;27.820;2022-10-18T05:19:38;100444.56;;;6.16;100.00
9905;BME280;4991;43.566;27.820;2022-10-18T05:22:04;100453.97;;;6.25;100.00
9905;BME280;4991;43.566;27.820;2022-10-18T05:24:30;100451.81;;;6.38;100.00
9905;BME280;4991;43.566;27.820;2022-10-18T05:26:56;100453.13;;;6.47;100.00
9905;BME280;4991;43.566;27.820;2022-10-18T05:29:22;100457.81;;;6.52;100.00
9905;BME280;4991;43.566;27.820;2022-10-18T05:31:48;100456.06;;;6.57;100.00
9905;BME280;4991;43.566;27.820;2022-10-18T05:34:14;100459.59;;;6.70;100.00
9905;BME280;4991;43.566;27.820;2022-10-18T05:36:39;100450.75;;;6.74;100.00
9905;BME280;4991;43.566;27.820;2022-10-18T05:39:05;100454.16;;;6.81;100.00
9905;BME280;4991;43.566;27.820;2022-10-18T05:41:31;100447.91;;;6.81;100.00
9905;BME280;4991;43.566;27.820;2022-10-18T05:43:57;100453.63;;;6.96;100.00
9905;BME280;4991;43.566;27.820;2022-10-18T05:46:22;100456.31;;;7.07;100.00
9905;BME280;4991;43.566;27.820;2022-10-18T05:48:49;100451.88;;;7.29;100.00
9905;BME280;4991;43.566;27.820;2022-10-18T05:51:16;100456.41;;;7.40;100.00
9905;BME280;4991;43.566;27.820;2022-10-18T05:53:42;100460.06;;;7.62;100.00
9905;BME280;4991;43.566;27.820;2022-10-18T05:56:08;100460.66;;;7.81;100.00
9905;BME280;4991;43.566;27.820;2022-10-18T05:58:36;100455.03;;;7.99;100.00
9905;BME280;4991;43.566;27.820;2022-10-18T06:01:04;100463.28;;;8.09;100.00
9905;BME280;4991;43.566;27.820;2022-10-18T06:03:30;100467.00;;;8.20;100.00
9905;BME280;4991;43.566;27.820;2022-10-18T06:06:07;100464.47;;;8.30;100.00
9905;BME280;4991;43.566;27.820;2022-10-18T06:08:34;100473.69;;;8.45;100.00
9905;BME280;4991;43.566;27.820;2022-10-18T06:11:07;100478.31;;;8.66;100.00
9905;BME280;4991;43.566;27.820;2022-10-18T06:13:33;100467.75;;;8.86;100.00
9905;BME280;4991;43.566;27.820;2022-10-18T06:15:58;100473.81;;;8.93;100.00
9905;BME280;4991;43.566;27.820;2022-10-18T06:18:24;100468.13;;;9.17;100.00
9905;BME280;4991;43.566;27.820;2022-10-18T06:20:55;100474.72;;;9.47;100.00
9905;BME280;4991;43.566;27.820;2022-10-18T06:23:21;100473.03;;;9.68;100.00
9905;BME280;4991;43.566;27.820;2022-10-18T06:25:47;100478.06;;;9.81;100.00
9905;BME280;4991;43.566;27.820;2022-10-18T06:28:13;100479.03;;;9.96;100.00
9905;BME280;4991;43.566;27.820;2022-10-18T06:30:39;100467.81;;;10.19;100.00
9905;BME280;4991;43.566;27.820;2022-10-18T06:33:05;100468.53;;;10.47;100.00
9905;BME280;4991;43.566;27.820;2022-10-18T06:35:30;100460.25;;;10.73;100.00
9905;BME280;4991;43.566;27.820;2022-10-18T06:37:56;100454.59;;;10.85;100.00
9905;BME280;4991;43.566;27.820;2022-10-18T06:40:22;100458.72;;;10.92;100.00
9905;BME280;4991;43.566;27.820;2022-10-18T06:42:47;100462.19;;;10.73;100.00
9905;BME280;4991;43.566;27.820;2022-10-18T06:45:14;100455.63;;;10.74;100.00
9905;BME280;4991;43.566;27.820;2022-10-18T06:47:40;100456.47;;;10.74;100.00
9905;BME280;4991;43.566;27.820;2022-10-18T06:50:06;100443.34;;;10.71;100.00
9905;BME280;4991;43.566;27.820;2022-10-18T06:52:31;100448.19;;;10.59;100.00
9905;BME280;4991;43.566;27.820;2022-10-18T06:54:57;100447.63;;;10.57;100.00
9905;BME280;4991;43.566;27.820;2022-10-18T06:57:23;100446.00;;;10.56;100.00
9905;BME280;4991;43.566;27.820;2022-10-18T06:59:48;100441.63;;;10.55;100.00
9905;BME280;4991;43.566;27.820;2022-10-18T07:02:16;100440.03;;;10.59;100.00
9905;BME280;4991;43.566;27.820;2022-10-18T07:04:42;100453.94;;;10.63;100.00
9905;BME280;4991;43.566;27.820;2022-10-18T07:07:08;100447.47;;;10.74;100.00
9905;BME280;4991;43.566;27.820;2022-10-18T07:09:33;100445.84;;;10.73;100.00
9905;BME280;4991;43.566;27.820;2022-10-18T07:11:59;100442.88;;;10.84;100.00
9905;BME280;4991;43.566;27.820;2022-10-18T07:14:24;100441.56;;;10.97;100.00
9905;BME280;4991;43.566;27.820;2022-10-18T07:16:50;100443.47;;;10.96;100.00
9905;BME280;4991;43.566;27.820;2022-10-18T07:19:16;100435.06;;;11.08;100.00
9905;BME280;4991;43.566;27.820;2022-10-18T07:21:41;100439.47;;;11.19;100.00
9905;BME280;4991;43.566;27.820;2022-10-18T07:24:07;100429.66;;;11.23;100.00
9905;BME280;4991;43.566;27.820;2022-10-18T07:26:33;100421.53;;;11.38;100.00
9905;BME280;4991;43.566;27.820;2022-10-18T07:29:10;100437.94;;;11.53;100.00
9905;BME280;4991;43.566;27.820;2022-10-18T07:31:37;100433.34;;;11.68;100.00
9905;BME280;4991;43.566;27.820;2022-10-18T07:34:06;100426.81;;;11.85;100.00
9905;BME280;4991;43.566;27.820;2022-10-18T07:36:33;100433.38;;;11.99;100.00
9905;BME280;4991;43.566;27.820;2022-10-18T07:38:58;100431.72;;;12.13;100.00
9905;BME280;4991;43.566;27.820;2022-10-18T07:41:24;100437.72;;;12.25;100.00
9905;BME280;4991;43.566;27.820;2022-10-18T07:43:51;100423.50;;;12.38;100.00
9905;BME280;4991;43.566;27.820;2022-10-18T07:46:18;100428.91;;;12.63;100.00
9905;BME280;4991;43.566;27.820;2022-10-18T07:48:44;100422.28;;;12.84;100.00
9905;BME280;4991;43.566;27.820;2022-10-18T07:51:10;100424.41;;;13.02;100.00
9905;BME280;4991;43.566;27.820;2022-10-18T07:53:36;100422.78;;;13.06;100.00
9905;BME280;4991;43.566;27.820;2022-10-18T07:56:08;100421.81;;;13.31;100.00
9905;BME280;4991;43.566;27.820;2022-10-18T07:58:36;100417.97;;;13.75;100.00
9905;BME280;4991;43.566;27.820;2022-10-18T08:01:03;100414.84;;;14.20;100.00
9905;BME280;4991;43.566;27.820;2022-10-18T08:03:28;100405.09;;;14.67;100.00
9905;BME280;4991;43.566;27.820;2022-10-18T08:05:54;100416.59;;;15.11;100.00
9905;BME280;4991;43.566;27.820;2022-10-18T08:08:23;100409.19;;;15.54;100.00
9905;BME280;4991;43.566;27.820;2022-10-18T08:10:49;100401.88;;;16.00;100.00
9905;BME280;4991;43.566;27.820;2022-10-18T08:13:15;100396.97;;;16.42;100.00
9905;BME280;4991;43.566;27.820;2022-10-18T08:15:41;100391.84;;;16.68;100.00
9905;BME280;4991;43.566;27.820;2022-10-18T08:18:07;100397.94;;;16.65;100.00
9905;BME280;4991;43.566;27.820;2022-10-18T08:20:33;100382.75;;;16.95;100.00
9905;BME280;4991;43.566;27.820;2022-10-18T08:23:00;100387.66;;;16.70;100.00
9905;BME280;4991;43.566;27.820;2022-10-18T08:25:26;100380.59;;;16.92;100.00
9905;BME280;4991;43.566;27.820;2022-10-18T08:27:52;100376.38;;;17.21;100.00
9905;BME280;4991;43.566;27.820;2022-10-18T08:30:18;100379.97;;;17.22;100.00
9905;BME280;4991;43.566;27.820;2022-10-18T08:32:43;100381.47;;;17.28;100.00
9905;BME280;4991;43.566;27.820;2022-10-18T08:35:09;100382.97;;;16.85;100.00
9905;BME280;4991;43.566;27.820;2022-10-18T08:37:35;100369.50;;;16.83;100.00
9905;BME280;4991;43.566;27.820;2022-10-18T08:40:00;100369.97;;;17.26;100.00
9905;BME280;4991;43.566;27.820;2022-10-18T08:43:06;100369.78;;;17.22;100.00
9905;BME280;4991;43.566;27.820;2022-10-18T08:45:38;100364.78;;;17.24;100.00
9905;BME280;4991;43.566;27.820;2022-10-18T08:48:07;100372.28;;;17.46;100.00
9905;BME280;4991;43.566;27.820;2022-10-18T08:50:40;100357.50;;;17.28;100.00
9905;BME280;4991;43.566;27.820;2022-10-18T08:53:30;100366.94;;;17.14;100.00
9905;BME280;4991;43.566;27.820;2022-10-18T08:56:10;100368.50;;;17.42;100.00
9905;BME280;4991;43.566;27.820;2022-10-18T08:58:41;100365.69;;;17.69;100.00
9905;BME280;4991;43.566;27.820;2022-10-18T09:15:48;100338.22;;;20.31;100.00
9905;BME280;4991;43.566;27.820;2022-10-18T09:21:18;100328.69;;;20.20;100.00
9905;BME280;4991;43.566;27.820;2022-10-18T09:24:08;100322.13;;;21.00;100.00
9905;BME280;4991;43.566;27.820;2022-10-18T09:26:43;100311.72;;;24.00;100.00
9905;BME280;4991;43.566;27.820;2022-10-18T09:32:09;100312.31;;;24.52;100.00
9905;BME280;4991;43.566;27.820;2022-10-18T09:34:57;100304.00;;;25.37;100.00
9905;BME280;4991;43.566;27.820;2022-10-18T09:37:28;100305.34;;;25.81;100.00
9905;BME280;4991;43.566;27.820;2022-10-18T09:40:03;100301.22;;;25.75;97.17
9905;BME280;4991;43.566;27.820;2022-10-18T09:42:40;100295.25;;;23.40;100.00
9905;BME280;4991;43.566;27.820;2022-10-18T09:45:26;100285.81;;;24.58;100.00
9905;BME280;4991;43.566;27.820;2022-10-18T09:51:00;100279.72;;;25.57;95.97
9905;BME280;4991;43.566;27.820;2022-10-18T09:56:13;100281.81;;;27.21;83.22
9905;BME280;4991;43.566;27.820;2022-10-18T09:58:46;100273.28;;;27.11;75.90
9905;BME280;4991;43.566;27.820;2022-10-18T10:01:15;100268.28;;;27.27;75.09
9905;BME280;4991;43.566;27.820;2022-10-18T10:03:43;100271.69;;;25.17;84.02
9905;BME280;4991;43.566;27.820;2022-10-18T10:08:45;100274.34;;;23.58;100.00
9905;BME280;4991;43.566;27.820;2022-10-18T10:11:36;100270.56;;;23.93;100.00
9905;BME280;4991;43.566;27.820;2022-10-18T10:14:19;100263.59;;;26.07;83.24
9905;BME280;4991;43.566;27.820;2022-10-18T10:19:53;100259.41;;;28.17;65.67
9905;BME280;4991;43.566;27.820;2022-10-18T10:22:41;100243.69;;;30.14;58.71
9905;BME280;4991;43.566;27.820;2022-10-18T10:27:45;100234.03;;;30.71;55.82
9905;BME280;4991;43.566;27.820;2022-10-18T10:30:33;100236.47;;;30.66;51.64
9905;BME280;4991;43.566;27.820;2022-10-18T10:33:00;100227.59;;;28.43;56.57
9905;BME280;4991;43.566;27.820;2022-10-18T10:35:38;100224.19;;;26.87;64.75
9905;BME280;4991;43.566;27.820;2022-10-18T10:38:06;100219.69;;;26.53;64.73
9905;BME280;4991;43.566;27.820;2022-10-18T10:41:00;100211.16;;;24.33;85.41
9905;BME280;4991;43.566;27.820;2022-10-18T10:45:56;100205.25;;;22.53;100.00
9905;BME280;4991;43.566;27.820;2022-10-18T10:48:23;100199.44;;;22.22;100.00
9905;BME280;4991;43.566;27.820;2022-10-18T10:51:00;100202.75;;;21.79;100.00
9905;BME280;4991;43.566;27.820;2022-10-18T10:53:28;100198.25;;;22.83;100.00
9905;BME280;4991;43.566;27.820;2022-10-18T10:55:56;100184.84;;;24.65;96.90
9905;BME280;4991;43.566;27.820;2022-10-18T10:58:25;100188.94;;;27.09;77.69
9905;BME280;4991;43.566;27.820;2022-10-18T11:00:52;100180.09;;;28.64;62.97
9905;BME280;4991;43.566;27.820;2022-10-18T11:03:19;100179.03;;;29.86;59.48
9905;BME280;4991;43.566;27.820;2022-10-18T11:05:53;100174.22;;;29.97;56.46
9905;BME280;4991;43.566;27.820;2022-10-18T11:08:28;100152.78;;;32.32;48.50
9905;BME280;4991;43.566;27.820;2022-10-18T11:13:49;100160.94;;;32.19;45.25
9905;BME280;4991;43.566;27.820;2022-10-18T11:16:31;100157.31;;;30.57;48.65
9905;BME280;4991;43.566;27.820;2022-10-18T11:19:20;100146.63;;;28.34;55.94
9905;BME280;4991;43.566;27.820;2022-10-18T11:21:51;100143.81;;;28.31;58.07
9905;BME280;4991;43.566;27.820;2022-10-18T11:24:17;100139.19;;;27.61;59.55
9905;BME280;4991;43.566;27.820;2022-10-18T11:40:06;100125.53;;;26.31;63.53
9905;BME280;4991;43.566;27.820;2022-10-18T11:49:07;100108.63;;;29.12;54.32
9905;BME280;4991;43.566;27.820;2022-10-18T11:51:46;100103.16;;;30.17;51.00
9905;BME280;4991;43.566;27.820;2022-10-18T12:05:52;100086.44;;;28.07;53.37
9905;BME280;4991;43.566;27.820;2022-10-18T12:08:30;100087.88;;;29.48;51.57
9905;BME280;4991;43.566;27.820;2022-10-18T12:11:00;100088.22;;;28.36;53.51
9905;BME280;4991;43.566;27.820;2022-10-18T12:16:06;100078.22;;;27.84;55.13
9905;BME280;4991;43.566;27.820;2022-10-18T12:18:35;100072.13;;;27.72;53.67
9905;BME280;4991;43.566;27.820;2022-10-18T12:21:07;100069.44;;;30.21;48.47
9905;BME280;4991;43.566;27.820;2022-10-18T12:23:44;100069.41;;;30.28;47.25
9905;BME280;4991;43.566;27.820;2022-10-18T12:26:14;100057.44;;;29.96;47.18
9905;BME280;4991;43.566;27.820;2022-10-18T12:31:34;100052.88;;;31.37;43.81
9905;BME280;4991;43.566;27.820;2022-10-18T12:39:55;100042.28;;;30.97;44.83
9905;BME280;4991;43.566;27.820;2022-10-18T12:42:27;100035.75;;;32.50;41.50
9905;BME280;4991;43.566;27.820;2022-10-18T12:47:28;100028.09;;;32.51;39.84
9905;BME280;4991;43.566;27.820;2022-10-18T12:50:21;100028.06;;;32.17;40.31
9905;BME280;4991;43.566;27.820;2022-10-18T12:55:37;100023.28;;;32.51;38.92
9905;BME280;4991;43.566;27.820;2022-10-18T12:58:21;100021.44;;;31.46;40.71
9905;BME280;4991;43.566;27.820;2022-10-18T13:13:56;100013.03;;;30.81;40.70
9905;BME280;4991;43.566;27.820;2022-10-18T13:19:38;100000.03;;;32.40;38.80
9905;BME280;4991;43.566;27.820;2022-10-18T13:30:30;99986.00;;;29.79;43.27
9905;BME280;4991;43.566;27.820;2022-10-18T13:33:33;99987.47;;;28.64;46.58
9905;BME280;4991;43.566;27.820;2022-10-18T13:36:23;99983.19;;;29.13;47.40
9905;BME280;4991;43.566;27.820;2022-10-18T13:41:24;99982.78;;;28.11;51.46
9905;BME280;4991;43.566;27.820;2022-10-18T14:01:27;99949.81;;;28.72;49.61
9905;BME280;4991;43.566;27.820;2022-10-18T14:05:03;99947.19;;;27.50;52.05
9905;BME280;4991;43.566;27.820;2022-10-18T14:07:01;99945.66;;;27.12;54.21
9905;BME280;4991;43.566;27.820;2022-10-18T14:09:33;99940.34;;;26.63;56.24
9905;BME280;4991;43.566;27.820;2022-10-18T14:12:27;99934.06;;;26.70;57.53
9905;BME280;4991;43.566;27.820;2022-10-18T14:15:13;99932.75;;;25.98;62.57
9905;BME280;4991;43.566;27.820;2022-10-18T14:17:46;99928.16;;;26.12;63.20
9905;BME280;4991;43.566;27.820;2022-10-18T14:20:50;99923.66;;;26.67;60.47
9905;BME280;4991;43.566;27.820;2022-10-18T14:23:41;99922.25;;;25.88;63.46
9905;BME280;4991;43.566;27.820;2022-10-18T14:26:18;99924.50;;;25.79;65.24
9905;BME280;4991;43.566;27.820;2022-10-18T14:29:01;99923.31;;;25.50;66.97
9905;BME280;4991;43.566;27.820;2022-10-18T14:31:27;99922.34;;;25.69;65.92
9905;BME280;4991;43.566;27.820;2022-10-18T14:33:55;99921.53;;;24.93;69.75
9905;BME280;4991;43.566;27.820;2022-10-18T14:36:23;99912.34;;;24.29;75.64
9905;BME280;4991;43.566;27.820;2022-10-18T14:39:16;99912.38;;;23.40;85.17
9905;BME280;4991;43.566;27.820;2022-10-18T14:41:47;99904.31;;;22.88;91.44
9905;BME280;4991;43.566;27.820;2022-10-18T14:49:44;99898.88;;;20.94;100.00
9905;BME280;4991;43.566;27.820;2022-10-18T14:52:33;99890.91;;;20.80;100.00
9905;BME280;4991;43.566;27.820;2022-10-18T14:54:59;99883.63;;;20.64;100.00
9905;BME280;4991;43.566;27.820;2022-10-18T14:57:29;99887.41;;;20.14;100.00
9905;BME280;4991;43.566;27.820;2022-10-18T15:00:01;99887.72;;;19.60;100.00
9905;BME280;4991;43.566;27.820;2022-10-18T15:02:29;99886.28;;;19.74;100.00
9905;BME280;4991;43.566;27.820;2022-10-18T15:05:05;99884.66;;;19.53;100.00
9905;BME280;4991;43.566;27.820;2022-10-18T15:07:31;99875.53;;;19.02;100.00
9905;BME280;4991;43.566;27.820;2022-10-18T15:09:59;99879.16;;;18.94;100.00
9905;BME280;4991;43.566;27.820;2022-10-18T15:12:26;99880.75;;;18.66;100.00
9905;BME280;4991;43.566;27.820;2022-10-18T15:14:53;99880.97;;;18.44;100.00
9905;BME280;4991;43.566;27.820;2022-10-18T15:17:30;99883.44;;;18.29;100.00
9905;BME280;4991;43.566;27.820;2022-10-18T15:19:57;99879.09;;;18.11;100.00
9905;BME280;4991;43.566;27.820;2022-10-18T15:22:26;99880.88;;;17.89;100.00
9905;BME280;4991;43.566;27.820;2022-10-18T15:27:31;99880.41;;;17.62;100.00
9905;BME280;4991;43.566;27.820;2022-10-18T15:30:15;99884.41;;;17.39;100.00
9905;BME280;4991;43.566;27.820;2022-10-18T15:32:50;99887.16;;;17.30;100.00
9905;BME280;4991;43.566;27.820;2022-10-18T15:35:19;99894.03;;;17.02;100.00
9905;BME280;4991;43.566;27.820;2022-10-18T15:37:47;99888.69;;;16.97;100.00
9905;BME280;4991;43.566;27.820;2022-10-18T15:42:52;99884.13;;;16.84;100.00
9905;BME280;4991;43.566;27.820;2022-10-18T15:50:48;99891.78;;;16.34;100.00
9905;BME280;4991;43.566;27.820;2022-10-18T15:55:56;99884.13;;;16.23;100.00
9905;BME280;4991;43.566;27.820;2022-10-18T15:58:25;99888.47;;;16.02;100.00
9905;BME280;4991;43.566;27.820;2022-10-18T16:00:52;99885.50;;;15.68;100.00
9905;BME280;4991;43.566;27.820;2022-10-18T16:03:20;99892.38;;;15.43;100.00
9905;BME280;4991;43.566;27.820;2022-10-18T16:05:53;99890.25;;;15.26;100.00
9905;BME280;4991;43.566;27.820;2022-10-18T16:08:23;99892.06;;;15.31;100.00